Time;durP1;ratioP1;P1;durP2;ratioP2;P2;SDS_P1;SDS_P2;PMS_P1;PMS_P2;Temp;Humidity;BMP_temperature;BMP_pressure;BME280_temperature;BME280_humidity;BME280_pressure;Samples;Min_cycle;Max_cycle;Signal;HPM_P1;HPM_P2
2023/04/12 00:01:02;;;;;;;;;1.00;1.00;;;;;12.23;72.74;99672.31;5077003;28;45483;-79
2023/04/12 00:06:49;;;;;;;;;2.75;2.00;;;;;12.38;72.69;99697.13;5075717;28;45782;-81
2023/04/12 00:09:14;;;;;;;;;2.00;1.75;;;;;12.40;72.70;99685.53;5076967;28;46356;-78
2023/04/12 00:11:43;;;;;;;;;2.75;2.75;;;;;12.37;72.72;99677.09;5075713;28;45690;-80
2023/04/12 00:14:09;;;;;;;;;2.00;2.00;;;;;12.36;72.74;99670.22;5076592;28;45757;-79
2023/04/12 00:16:35;;;;;;;;;3.50;2.00;;;;;12.40;72.62;99676.81;5075623;28;46733;-78
2023/04/12 00:19:02;;;;;;;;;3.50;2.50;;;;;12.32;72.87;99653.06;5075817;28;46254;-78
2023/04/12 00:21:27;;;;;;;;;4.25;2.50;;;;;12.31;72.92;99651.41;5074788;28;45951;-77
2023/04/12 00:23:53;;;;;;;;;4.00;2.00;;;;;12.36;73.12;99652.63;5075781;28;45743;-80
2023/04/12 00:26:20;;;;;;;;;2.75;2.50;;;;;12.22;73.05;99628.63;5075507;28;45648;-77
2023/04/12 00:28:46;;;;;;;;;6.00;3.50;;;;;12.37;72.84;99635.91;5075521;28;46048;-76
2023/04/12 00:31:11;;;;;;;;;3.00;2.00;;;;;12.21;73.28;99609.41;5074980;28;45681;-75
2023/04/12 00:37:00;;;;;;;;;2.75;1.75;;;;;12.38;73.33;99620.97;5075086;28;45551;-76
2023/04/12 00:39:25;;;;;;;;;2.75;2.00;;;;;12.32;73.12;99614.47;5075439;28;45996;-76
2023/04/12 00:41:51;;;;;;;;;3.75;2.25;;;;;12.38;73.17;99618.34;5074920;28;46223;-80
2023/04/12 00:44:17;;;;;;;;;3.00;2.75;;;;;12.29;73.25;99596.41;5075578;28;45763;-77
2023/04/12 00:46:43;;;;;;;;;4.00;3.00;;;;;12.38;73.20;99599.94;5074952;28;46545;-78
2023/04/12 00:49:11;;;;;;;;;3.50;2.00;;;;;12.37;73.31;99593.88;5074977;28;47484;-78
2023/04/12 00:51:36;;;;;;;;;1.00;1.00;;;;;12.23;73.29;99568.09;5074905;28;45580;-77
2023/04/12 00:54:02;;;;;;;;;2.50;2.00;;;;;12.38;73.40;99578.94;5075314;28;45716;-77
2023/04/12 00:56:29;;;;;;;;;2.50;2.00;;;;;12.37;73.26;99579.91;5075498;28;46257;-77
2023/04/12 00:58:55;;;;;;;;;1.75;1.25;;;;;12.25;73.37;99568.78;5076190;28;46529;-78
2023/04/12 01:01:21;;;;;;;;;4.00;2.50;;;;;12.36;73.54;99576.44;5075811;28;45724;-78
2023/04/12 01:07:30;;;;;;;;;1.00;1.00;;;;;12.35;73.41;99532.78;5074869;28;46182;-76
2023/04/12 01:10:02;;;;;;;;;3.00;1.50;;;;;12.35;73.69;99527.53;5074757;28;46024;-76
2023/04/12 01:12:53;;;;;;;;;3.00;2.00;;;;;12.36;73.76;99510.78;5073841;28;45797;-79
2023/04/12 01:15:18;;;;;;;;;1.50;1.50;;;;;12.37;73.58;99528.19;5075231;28;45710;-78
2023/04/12 01:18:08;;;;;;;;;3.25;2.25;;;;;12.41;73.35;99510.38;5074579;28;45592;-79
2023/04/12 01:20:43;;;;;;;;;2.50;2.00;;;;;12.39;73.77;99523.63;5074351;28;45873;-78
2023/04/12 01:23:18;;;;;;;;;2.00;2.00;;;;;12.41;73.81;99523.50;5074264;28;45590;-76
2023/04/12 01:25:46;;;;;;;;;4.00;2.00;;;;;12.38;73.77;99511.47;5074431;28;45621;-76
2023/04/12 01:28:15;;;;;;;;;1.00;1.00;;;;;12.39;73.55;99514.94;5074675;28;45661;-78
2023/04/12 01:30:42;;;;;;;;;7.75;3.75;;;;;12.35;73.78;99511.78;5074300;28;45956;-77
2023/04/12 01:33:10;;;;;;;;;3.25;2.00;;;;;12.37;74.03;99496.69;5073842;28;45865;-78
2023/04/12 01:35:36;;;;;;;;;2.00;1.00;;;;;12.38;73.65;99489.63;5074721;28;45801;-78
2023/04/12 01:38:03;;;;;;;;;2.00;2.00;;;;;12.34;73.83;99470.72;5074763;28;45724;-79
2023/04/12 01:40:30;;;;;;;;;3.75;3.00;;;;;12.36;73.80;99460.09;5074865;28;45960;-78
2023/04/12 01:43:05;;;;;;;;;2.75;2.25;;;;;12.40;73.82;99469.31;5075174;28;45697;-77
2023/04/12 01:45:30;;;;;;;;;2.00;1.00;;;;;12.23;74.26;99436.78;5074980;28;45665;-79
2023/04/12 01:47:56;;;;;;;;;5.25;1.75;;;;;12.40;74.06;99457.00;5074488;28;46243;-78
2023/04/12 01:50:26;;;;;;;;;3.00;2.00;;;;;12.40;74.34;99445.66;5074199;28;45737;-78
2023/04/12 01:53:02;;;;;;;;;2.00;1.25;;;;;12.36;74.15;99442.50;5074062;28;45587;-78
2023/04/12 01:55:30;;;;;;;;;2.00;2.00;;;;;12.40;73.93;99445.66;5074750;28;45605;-78
2023/04/12 01:57:58;;;;;;;;;1.25;1.00;;;;;12.33;74.11;99444.59;5074179;28;47207;-77
2023/04/12 02:00:24;;;;;;;;;2.00;2.00;;;;;12.39;74.25;99441.38;5074330;28;46053;-78
2023/04/12 02:02:50;;;;;;;;;2.00;2.00;;;;;12.29;74.21;99415.19;5073790;28;45715;-77
2023/04/12 02:05:16;;;;;;;;;1.75;1.00;;;;;12.39;74.29;99433.50;5074047;28;45622;-76
2023/04/12 02:07:42;;;;;;;;;2.50;2.00;;;;;12.39;74.33;99434.34;5074021;28;45606;-78
2023/04/12 02:10:13;;;;;;;;;3.75;2.25;;;;;12.39;74.62;99429.09;5073907;28;45685;-78
2023/04/12 02:12:38;;;;;;;;;1.75;1.50;;;;;12.40;74.47;99417.59;5073551;28;45688;-78
2023/04/12 02:15:06;;;;;;;;;2.50;2.00;;;;;12.41;74.74;99419.25;5073998;28;45665;-78
2023/04/12 02:17:32;;;;;;;;;2.50;2.00;;;;;12.42;74.57;99404.28;5073575;28;46599;-78
2023/04/12 02:23:33;;;;;;;;;1.75;1.25;;;;;12.43;74.92;99393.66;5070765;28;46056;-79
2023/04/12 02:25:58;;;;;;;;;1.00;1.00;;;;;12.42;75.09;99385.91;5073852;28;45802;-78
2023/04/12 02:28:24;;;;;;;;;3.75;2.00;;;;;12.42;74.94;99378.84;5073994;28;46283;-77
2023/04/12 02:30:52;;;;;;;;;2.00;1.00;;;;;12.44;75.02;99389.22;5073380;28;46887;-79
2023/04/12 02:33:20;;;;;;;;;2.50;1.00;;;;;12.44;74.90;99370.84;5054974;28;45675;-80
2023/04/12 02:35:46;;;;;;;;;2.25;1.00;;;;;12.42;75.20;99373.59;5073498;28;45812;-79
2023/04/12 02:38:12;;;;;;;;;1.25;0.75;;;;;12.44;75.28;99358.53;5073276;28;46563;-78
2023/04/12 02:40:41;;;;;;;;;2.00;2.00;;;;;12.41;75.24;99356.22;5072892;28;47309;-78
2023/04/12 02:43:07;;;;;;;;;2.75;1.00;;;;;12.45;75.14;99347.06;5073089;28;45772;-78
2023/04/12 02:45:33;;;;;;;;;2.00;1.00;;;;;12.44;75.55;99353.28;5073749;28;45669;-79
2023/04/12 02:47:58;;;;;;;;;1.00;1.00;;;;;12.45;75.35;99339.16;5073292;28;46277;-78
2023/04/12 02:53:45;;;;;;;;;1.75;0.25;;;;;12.46;75.54;99340.00;5073313;28;45685;-79
2023/04/12 02:56:11;;;;;;;;;1.00;1.00;;;;;12.43;75.83;99332.41;5073542;28;45691;-78
2023/04/12 02:58:37;;;;;;;;;1.75;1.00;;;;;12.47;75.51;99329.31;5073235;28;46497;-78
2023/04/12 03:01:06;;;;;;;;;1.00;1.00;;;;;12.48;75.70;99317.84;5072867;28;45875;-77
2023/04/12 03:03:33;;;;;;;;;2.00;1.50;;;;;12.49;75.76;99327.38;5056218;28;45547;-77
2023/04/12 03:09:21;;;;;;;;;1.50;1.00;;;;;12.51;76.03;99327.22;5073210;28;45630;-79
2023/04/12 03:11:47;;;;;;;;;0.75;0.00;;;;;12.50;75.79;99315.06;5073316;28;46076;-78
2023/04/12 03:14:12;;;;;;;;;2.00;1.00;;;;;12.44;76.09;99289.41;5074160;28;46049;-77
2023/04/12 03:16:38;;;;;;;;;3.25;1.00;;;;;12.47;76.09;99295.16;5075908;28;45684;-78
2023/04/12 03:19:05;;;;;;;;;1.00;1.00;;;;;12.44;76.25;99299.91;5073515;28;45738;-77
2023/04/12 03:21:32;;;;;;;;;2.00;1.25;;;;;12.42;76.15;99286.09;5072611;28;45985;-76
2023/04/12 03:23:57;;;;;;;;;1.00;1.00;;;;;12.50;76.28;99299.31;5072878;28;45975;-76
2023/04/12 03:26:25;;;;;;;;;0.50;0.00;;;;;12.50;76.39;99310.63;5073355;28;45760;-76
2023/04/12 03:28:55;;;;;;;;;1.00;1.00;;;;;12.31;76.43;99302.13;5073065;28;45648;-78
2023/04/12 03:31:20;;;;;;;;;1.00;1.00;;;;;12.41;76.77;99350.97;5072296;28;45950;-77
2023/04/12 03:33:46;;;;;;;;;1.00;1.00;;;;;12.43;77.12;99356.03;5072357;28;45752;-78
2023/04/12 03:39:33;;;;;;;;;0.00;0.00;;;;;12.31;76.61;99355.44;5072608;28;45780;-78
2023/04/12 03:41:58;;;;;;;;;0.00;0.00;;;;;12.20;76.24;99355.69;5072013;28;46295;-79
2023/04/12 03:44:25;;;;;;;;;0.00;0.00;;;;;12.09;76.41;99346.22;5054495;28;46190;-79
2023/04/12 03:46:50;;;;;;;;;0.00;0.00;;;;;11.88;76.97;99319.44;5072916;28;45885;-78
2023/04/12 03:49:16;;;;;;;;;0.00;0.00;;;;;11.89;76.80;99334.22;5072683;28;46391;-79
2023/04/12 03:55:04;;;;;;;;;0.00;0.00;;;;;11.85;76.82;99311.88;5072478;28;45754;-78
2023/04/12 03:57:30;;;;;;;;;0.00;0.00;;;;;11.81;76.45;99323.66;5072872;28;45768;-78
2023/04/12 03:59:56;;;;;;;;;0.00;0.00;;;;;11.79;76.49;99322.97;5072579;28;45645;-77
2023/04/12 04:02:21;;;;;;;;;0.00;0.00;;;;;11.75;76.50;99325.06;5071841;28;46102;-77
2023/04/12 04:04:46;;;;;;;;;0.00;0.00;;;;;11.72;76.37;99327.13;5072351;28;45504;-77
2023/04/12 04:07:12;;;;;;;;;0.00;0.00;;;;;11.59;76.55;99303.88;5072848;28;45630;-77
2023/04/12 04:09:37;;;;;;;;;0.00;0.00;;;;;11.69;76.27;99328.25;5072097;28;45697;-77
2023/04/12 04:12:03;;;;;;;;;0.00;0.00;;;;;11.66;76.09;99318.03;5071565;28;46201;-77
2023/04/12 04:14:28;;;;;;;;;0.00;0.00;;;;;11.65;76.23;99312.97;5072470;28;45637;-78
2023/04/12 04:16:54;;;;;;;;;0.00;0.00;;;;;11.66;76.01;99312.00;5072239;28;45602;-76
2023/04/12 04:19:21;;;;;;;;;0.00;0.00;;;;;11.62;76.27;99314.06;5069897;28;46335;-76
2023/04/12 04:25:13;;;;;;;;;0.00;0.00;;;;;11.59;76.25;99303.88;5070367;27;45836;-78
2023/04/12 04:27:39;;;;;;;;;0.00;0.00;;;;;11.47;76.14;99298.97;5072155;28;45743;-78
2023/04/12 04:30:05;;;;;;;;;0.00;0.00;;;;;11.55;76.56;99307.75;5053862;28;46417;-77
2023/04/12 04:32:32;;;;;;;;;0.00;0.00;;;;;11.50;76.43;99294.25;5071191;28;48071;-77
2023/04/12 04:34:59;;;;;;;;;0.00;0.00;;;;;11.60;76.51;99315.19;5071573;28;45993;-77
2023/04/12 04:40:54;;;;;;;;;0.00;0.00;;;;;11.60;76.59;99302.91;5071161;28;46165;-76
2023/04/12 04:43:20;;;;;;;;;0.00;0.00;;;;;11.60;76.63;99310.78;5072158;28;47172;-78
2023/04/12 04:45:49;;;;;;;;;0.00;0.00;;;;;11.55;76.62;99302.50;5072219;28;45599;-77
2023/04/12 04:48:15;;;;;;;;;0.00;0.00;;;;;11.58;76.63;99310.09;5075651;28;45649;-75
2023/04/12 04:50:40;;;;;;;;;0.00;0.00;;;;;11.59;76.21;99306.50;5074856;28;45759;-77
2023/04/12 04:53:06;;;;;;;;;0.00;0.00;;;;;11.60;76.69;99307.31;5056764;28;47082;-75
2023/04/12 04:55:31;;;;;;;;;0.00;0.00;;;;;11.58;76.84;99291.72;5075145;28;45709;-78
2023/04/12 04:57:57;;;;;;;;;0.00;0.00;;;;;11.60;76.78;99300.28;5075520;28;45507;-78
2023/04/12 05:00:24;;;;;;;;;1.00;0.00;;;;;11.61;76.81;99312.41;5074993;28;46541;-76
2023/04/12 05:02:50;;;;;;;;;0.00;0.00;;;;;11.61;76.75;99296.66;5056919;28;46970;-78
2023/04/12 05:05:16;;;;;;;;;0.50;0.00;;;;;11.63;76.75;99284.25;5075282;28;45765;-77
2023/04/12 05:11:03;;;;;;;;;0.00;0.00;;;;;11.69;76.49;99286.28;5074576;28;46432;-77
2023/04/12 05:13:29;;;;;;;;;0.00;0.00;;;;;11.72;76.46;99303.50;5075144;28;45776;-79
2023/04/12 05:15:54;;;;;;;;;0.00;0.00;;;;;11.70;76.48;99311.53;5075268;28;45687;-76
2023/04/12 05:18:19;;;;;;;;;0.00;0.00;;;;;11.63;76.65;99288.66;5076132;28;45778;-76
2023/04/12 05:20:47;;;;;;;;;0.00;0.00;;;;;11.61;76.46;99285.34;5074032;28;47319;-77
2023/04/12 05:26:34;;;;;;;;;0.00;0.00;;;;;11.68;76.32;99308.22;5072985;28;45762;-75
2023/04/12 05:29:00;;;;;;;;;0.00;0.00;;;;;11.69;76.54;99317.75;5074598;28;45561;-76
2023/04/12 05:31:26;;;;;;;;;0.00;0.00;;;;;11.66;76.44;99312.78;5074226;28;45630;-74
2023/04/12 05:33:53;;;;;;;;;1.00;1.00;;;;;11.65;76.30;99345.25;5074967;28;46335;-76
2023/04/12 05:36:19;;;;;;;;;1.00;1.00;;;;;11.58;75.73;99383.53;5074044;28;45669;-77
2023/04/12 05:38:44;;;;;;;;;0.25;0.25;;;;;11.37;75.51;99393.44;5056145;28;45673;-78
2023/04/12 05:41:09;;;;;;;;;0.50;0.50;;;;;11.12;75.97;99371.28;5055990;28;47757;-74
2023/04/12 05:43:36;;;;;;;;;0.00;0.00;;;;;10.74;76.04;99353.88;5074073;28;46915;-74
2023/04/12 05:46:02;;;;;;;;;0.00;0.00;;;;;10.49;76.46;99367.56;5074479;28;45957;-78
2023/04/12 05:48:27;;;;;;;;;1.00;0.00;;;;;10.31;75.89;99383.13;5074407;28;45761;-75
2023/04/12 05:50:53;;;;;;;;;0.25;0.00;;;;;10.05;76.42;99369.72;5073894;28;46707;-76
2023/04/12 05:56:40;;;;;;;;;0.00;0.00;;;;;9.87;76.12;99386.22;5074713;28;46221;-75
2023/04/12 05:59:06;;;;;;;;;1.00;0.00;;;;;9.74;75.78;99402.16;5074425;28;45585;-78
2023/04/12 06:01:33;;;;;;;;;1.00;0.00;;;;;9.59;76.12;99406.09;5073453;28;46203;-74
2023/04/12 06:03:58;;;;;;;;;0.00;0.00;;;;;9.50;76.33;99420.78;5073697;28;46532;-77
2023/04/12 06:06:29;;;;;;;;;0.25;0.00;;;;;9.43;77.51;99405.75;5057308;28;45665;-75
2023/04/12 06:12:17;;;;;;;;;1.00;1.00;;;;;9.47;77.83;99417.59;5075261;28;46237;-82
2023/04/12 06:14:42;;;;;;;;;1.50;1.00;;;;;9.47;77.94;99400.13;5075709;28;46040;-79
2023/04/12 06:17:08;;;;;;;;;1.00;1.00;;;;;9.50;78.10;99393.81;5075582;28;45624;-78
2023/04/12 06:19:33;;;;;;;;;2.75;1.50;;;;;9.32;78.50;99350.97;5075421;28;45818;-87
2023/04/12 06:21:58;;;;;;;;;1.50;1.50;;;;;9.54;78.22;99392.59;5074881;28;46353;-80
2023/04/12 06:24:24;;;;;;;;;1.50;1.50;;;;;9.48;78.42;99380.88;5075138;28;45757;-74
2023/04/12 06:26:49;;;;;;;;;1.00;1.00;;;;;9.40;78.19;99385.09;5074541;28;45638;-76
2023/04/12 06:29:16;;;;;;;;;2.00;1.50;;;;;9.47;78.30;99392.28;5074947;28;45640;-83
2023/04/12 06:31:41;;;;;;;;;2.50;2.00;;;;;9.55;78.72;99407.34;5039691;28;46761;-75
2023/04/12 06:34:06;;;;;;;;;2.75;2.75;;;;;9.62;78.79;99409.25;5075037;28;45556;-80
2023/04/12 06:36:32;;;;;;;;;4.25;1.75;;;;;9.64;78.24;99414.38;5074517;28;45771;-77
2023/04/12 06:38:57;;;;;;;;;3.00;2.75;;;;;9.58;78.35;99405.25;5074588;28;45785;-79
2023/04/12 06:41:22;;;;;;;;;1.75;1.75;;;;;9.48;78.24;99385.28;5074217;28;46314;-77
2023/04/12 06:43:48;;;;;;;;;1.00;1.00;;;;;9.60;77.85;99392.91;5056432;28;47656;-77
2023/04/12 06:46:17;;;;;;;;;2.00;2.00;;;;;9.64;77.86;99401.28;5074411;28;45716;-77
2023/04/12 06:48:42;;;;;;;;;1.75;1.00;;;;;9.62;77.48;99385.72;5074893;28;45579;-78
2023/04/12 06:51:10;;;;;;;;;1.00;1.00;;;;;9.64;77.66;99403.91;5073929;28;47319;-77
2023/04/12 06:53:37;;;;;;;;;1.00;1.00;;;;;9.58;77.60;99389.59;5074645;28;46322;-78
2023/04/12 06:56:03;;;;;;;;;0.75;0.75;;;;;9.68;77.05;99427.03;5074479;28;45842;-78
2023/04/12 06:58:30;;;;;;;;;0.00;0.00;;;;;9.66;76.99;99418.50;5056539;28;45548;-76
2023/04/12 07:01:07;;;;;;;;;0.00;0.00;;;;;9.69;77.16;99410.41;5074143;28;46664;-77
2023/04/12 07:03:33;;;;;;;;;0.00;0.00;;;;;9.79;76.58;99433.13;5074073;28;47282;-79
2023/04/12 07:06:01;;;;;;;;;3.00;1.00;;;;;9.75;76.83;99416.88;5074023;28;45792;-77
2023/04/12 07:08:28;;;;;;;;;0.00;0.00;;;;;9.73;75.89;99420.59;5074031;28;45597;-78
2023/04/12 07:10:56;;;;;;;;;0.00;0.00;;;;;9.84;75.61;99425.72;5073696;28;45658;-75
2023/04/12 07:13:21;;;;;;;;;1.00;1.00;;;;;9.85;76.31;99409.06;5073847;28;45653;-74
2023/04/12 07:15:51;;;;;;;;;0.00;0.00;;;;;9.89;75.21;99413.06;5074344;28;45520;-77
2023/04/12 07:18:16;;;;;;;;;0.00;0.00;;;;;9.86;75.09;99410.72;5074775;28;45631;-78
2023/04/12 07:20:42;;;;;;;;;0.00;0.00;;;;;9.85;75.44;99393.38;5073438;28;46324;-75
2023/04/12 07:23:07;;;;;;;;;1.00;1.00;;;;;9.83;75.78;99369.13;5073973;28;46821;-76
2023/04/12 07:25:36;;;;;;;;;0.00;0.00;;;;;10.02;75.29;99385.69;5074185;28;45580;-77
2023/04/12 07:28:02;;;;;;;;;0.00;0.00;;;;;10.12;75.25;99383.09;5074103;28;45530;-76
2023/04/12 07:30:27;;;;;;;;;0.00;0.00;;;;;10.23;74.93;99395.25;5055621;28;47529;-77
2023/04/12 07:32:53;;;;;;;;;0.00;0.00;;;;;10.30;74.95;99381.50;5073998;28;46035;-80
2023/04/12 07:35:19;;;;;;;;;1.25;0.00;;;;;10.40;74.71;99377.06;5073832;28;45722;-79
2023/04/12 07:37:45;;;;;;;;;0.00;0.00;;;;;10.48;74.25;99371.97;5055908;28;45854;-78
2023/04/12 07:40:10;;;;;;;;;0.00;0.00;;;;;10.56;73.76;99363.41;5074154;28;45637;-80
2023/04/12 07:42:36;;;;;;;;;0.25;0.00;;;;;10.62;73.78;99362.88;5073727;28;45717;-78
2023/04/12 07:45:01;;;;;;;;;0.00;0.00;;;;;10.66;73.39;99351.13;5073806;28;45703;-76
2023/04/12 07:47:26;;;;;;;;;0.75;0.00;;;;;10.73;73.42;99346.16;5074253;28;45639;-77
2023/04/12 07:49:52;;;;;;;;;0.00;0.00;;;;;10.87;73.53;99358.81;5073535;28;47006;-79
2023/04/12 07:52:17;;;;;;;;;1.00;0.00;;;;;10.98;73.47;99363.06;5073386;28;47098;-76
2023/04/12 07:58:04;;;;;;;;;0.00;0.00;;;;;11.06;72.75;99376.28;5073838;28;45695;-79
2023/04/12 08:00:31;;;;;;;;;1.00;0.00;;;;;11.07;72.45;99378.75;5073348;28;46494;-77
2023/04/12 08:02:56;;;;;;;;;0.00;0.00;;;;;11.04;71.98;99371.19;5073352;28;46182;-79
2023/04/12 08:05:22;;;;;;;;;1.00;0.00;;;;;11.05;71.71;99375.47;5073576;28;45646;-76
2023/04/12 08:07:47;;;;;;;;;0.50;0.00;;;;;11.04;71.21;99383.47;5073908;28;45710;-78
2023/04/12 08:13:34;;;;;;;;;0.00;0.00;;;;;11.10;71.74;99396.00;5073613;28;46025;-78
2023/04/12 08:16:00;;;;;;;;;0.00;0.00;;;;;11.13;71.49;99404.41;5073555;28;45655;-77
2023/04/12 08:18:25;;;;;;;;;1.00;0.50;;;;;11.25;71.43;99415.53;5073925;28;45534;-79
2023/04/12 08:20:51;;;;;;;;;1.25;0.00;;;;;11.28;71.32;99420.53;5072692;28;46483;-77
2023/04/12 08:23:16;;;;;;;;;0.00;0.00;;;;;11.31;70.64;99434.16;5077249;28;46140;-74
2023/04/12 08:25:42;;;;;;;;;0.00;0.00;;;;;11.29;70.43;99437.88;5077005;28;45708;-78
2023/04/12 08:28:07;;;;;;;;;0.25;0.00;;;;;11.31;69.72;99431.53;5077095;28;45883;-78
2023/04/12 08:30:33;;;;;;;;;0.00;0.00;;;;;11.32;70.71;99443.69;5076362;28;46469;-79
2023/04/12 08:32:59;;;;;;;;;0.00;0.00;;;;;11.30;69.67;99448.22;5077060;28;45659;-80
2023/04/12 08:35:24;;;;;;;;;0.00;0.00;;;;;11.18;70.19;99441.50;5058635;28;45768;-76
2023/04/12 08:37:50;;;;;;;;;0.00;0.00;;;;;11.31;70.38;99483.16;5076920;28;45503;-78
2023/04/12 08:43:42;;;;;;;;;0.00;0.00;;;;;11.09;68.66;99442.34;5076448;28;45993;-76
2023/04/12 08:46:08;;;;;;;;;0.00;0.00;;;;;11.09;68.55;99444.16;5076470;28;45580;-75
2023/04/12 08:48:34;;;;;;;;;0.00;0.00;;;;;10.95;69.33;99432.31;5076628;28;45681;-76
2023/04/12 08:50:59;;;;;;;;;0.00;0.00;;;;;10.97;69.67;99432.16;5076272;28;46581;-74
2023/04/12 08:53:25;;;;;;;;;0.00;0.00;;;;;10.91;69.42;99429.13;5076234;28;46163;-75
2023/04/12 08:55:51;;;;;;;;;0.00;0.00;;;;;11.03;69.12;99452.56;5076135;28;45663;-77
2023/04/12 08:58:18;;;;;;;;;0.00;0.00;;;;;11.02;70.30;99449.13;5057966;28;45880;-74
2023/04/12 09:00:45;;;;;;;;;0.00;0.00;;;;;11.03;70.10;99453.38;5075504;28;46624;-74
2023/04/12 09:03:10;;;;;;;;;0.00;0.00;;;;;10.93;70.70;99437.69;5057850;28;47667;-77
2023/04/12 09:05:35;;;;;;;;;0.00;0.00;;;;;11.07;69.33;99477.50;5076231;28;45598;-74
2023/04/12 09:08:01;;;;;;;;;0.00;0.00;;;;;11.09;69.47;99467.72;5076451;28;45645;-74
2023/04/12 09:13:49;;;;;;;;;0.00;0.00;;;;;11.21;68.26;99471.84;5075804;28;45818;-75
2023/04/12 09:16:15;;;;;;;;;0.00;0.00;;;;;11.23;69.28;99467.28;5075720;28;45672;-74
2023/04/12 09:18:50;;;;;;;;;0.00;0.00;;;;;11.30;68.32;99461.34;5075855;28;45736;-76
2023/04/12 09:21:17;;;;;;;;;0.00;0.00;;;;;11.36;68.17;99460.78;5075199;28;46021;-74
2023/04/12 09:23:42;;;;;;;;;0.25;0.00;;;;;11.38;68.98;99460.66;5075356;28;46426;-75
2023/04/12 09:26:09;;;;;;;;;0.00;0.00;;;;;11.32;68.17;99461.22;5057310;28;45694;-74
2023/04/12 09:28:35;;;;;;;;;0.00;0.00;;;;;11.35;68.66;99459.13;5075808;28;45620;-74
2023/04/12 09:31:02;;;;;;;;;0.00;0.00;;;;;11.44;69.19;99474.97;5074102;28;47589;-73
2023/04/12 09:33:33;;;;;;;;;0.00;0.00;;;;;11.48;67.69;99471.94;5075279;28;45499;-74
2023/04/12 09:36:01;;;;;;;;;0.00;0.00;;;;;11.48;67.98;99442.25;5076925;28;45607;-75
2023/04/12 09:38:26;;;;;;;;;1.00;0.00;;;;;11.63;68.13;99486.25;5078138;28;45699;-76
2023/04/12 09:44:29;;;;;;;;;0.25;0.00;;;;;11.65;67.31;99481.69;5076066;28;45740;-75
2023/04/12 09:46:57;;;;;;;;;0.50;0.00;;;;;11.66;68.44;99482.50;5075634;28;45857;-75
2023/04/12 09:49:47;;;;;;;;;0.75;0.00;;;;;11.63;67.41;99495.91;5076390;28;45610;-77
2023/04/12 09:52:13;;;;;;;;;0.00;0.00;;;;;11.68;66.58;99477.94;5075079;28;46548;-77
2023/04/12 09:54:48;;;;;;;;;0.00;0.00;;;;;11.71;66.06;99478.47;5075469;28;46154;-75
2023/04/12 09:57:16;;;;;;;;;0.00;0.00;;;;;11.77;66.47;99488.41;5075538;28;45670;-75
2023/04/12 09:59:43;;;;;;;;;0.00;0.00;;;;;11.75;65.32;99471.19;5075089;28;45543;-74
2023/04/12 10:02:16;;;;;;;;;0.50;0.00;;;;;11.92;65.48;99496.66;5074606;28;46434;-75
2023/04/12 10:04:42;;;;;;;;;0.00;0.00;;;;;11.98;65.14;99487.38;5075096;28;46339;-77
2023/04/12 10:07:08;;;;;;;;;0.00;0.00;;;;;12.00;64.89;99474.91;5056904;28;45720;-74
2023/04/12 10:09:37;;;;;;;;;0.00;0.00;;;;;12.06;64.76;99474.34;5075142;28;45778;-76
2023/04/12 10:12:02;;;;;;;;;0.00;0.00;;;;;12.13;65.24;99483.28;5074312;28;47248;-76
2023/04/12 10:14:29;;;;;;;;;0.00;0.00;;;;;12.11;64.30;99486.06;5075005;28;46221;-76
2023/04/12 10:16:57;;;;;;;;;0.50;0.00;;;;;12.17;63.92;99492.53;5075262;28;45638;-76
2023/04/12 10:19:25;;;;;;;;;0.00;0.00;;;;;12.15;63.71;99469.03;5056855;28;46003;-77
2023/04/12 10:21:50;;;;;;;;;0.00;0.00;;;;;12.22;64.81;99484.19;5074415;28;46401;-74
2023/04/12 10:24:16;;;;;;;;;0.00;0.00;;;;;12.22;63.02;99476.31;5074694;28;46697;-74
2023/04/12 10:26:45;;;;;;;;;0.00;0.00;;;;;12.24;64.66;99488.34;5074539;28;45591;-74
2023/04/12 10:29:27;;;;;;;;;1.00;0.00;;;;;12.25;63.31;99492.63;5074508;28;45677;-74
2023/04/12 10:31:54;;;;;;;;;0.00;0.00;;;;;12.24;62.83;99504.09;5073942;28;46341;-76
2023/04/12 10:34:26;;;;;;;;;0.75;0.50;;;;;12.18;62.69;99517.81;5074421;28;46940;-75
2023/04/12 10:36:53;;;;;;;;;0.25;0.00;;;;;12.16;63.15;99498.75;5074596;28;45694;-75
2023/04/12 10:46:05;;;;;;;;;0.75;0.00;;;;;12.17;61.35;99492.53;5031586;28;45786;-76
2023/04/12 10:48:36;;;;;;;;;0.00;0.00;;;;;12.21;60.89;99493.88;5015555;28;45831;-74
2023/04/12 10:51:25;;;;;;;;;0.00;0.00;;;;;12.27;61.27;99472.28;5031221;28;45625;-74
2023/04/12 10:54:10;;;;;;;;;0.75;0.25;;;;;12.41;60.27;99482.31;5031725;28;45671;-76
2023/04/12 10:56:37;;;;;;;;;0.00;0.00;;;;;12.54;60.31;99492.44;5031112;28;46030;-75
2023/04/12 10:59:07;;;;;;;;;0.25;0.00;;;;;12.65;59.07;99491.38;5031505;28;45820;-74
2023/04/12 11:01:33;;;;;;;;;0.50;0.00;;;;;12.70;59.61;99494.38;5031459;28;45566;-75
2023/04/12 11:04:19;;;;;;;;;0.00;0.00;;;;;12.66;59.08;99480.72;5031619;28;46459;-77
2023/04/12 11:07:03;;;;;;;;;0.00;0.00;;;;;12.79;58.68;99483.81;5030653;28;46341;-74
2023/04/12 11:09:32;;;;;;;;;0.00;0.00;;;;;12.89;57.63;99492.44;5031504;28;45766;-77
2023/04/12 11:12:12;;;;;;;;;0.00;0.00;;;;;12.87;57.56;99486.50;5032508;28;45564;-74
2023/04/12 11:14:42;;;;;;;;;1.00;0.00;;;;;12.88;57.12;99493.41;5073997;28;47514;-76
2023/04/12 11:17:07;;;;;;;;;1.50;0.50;;;;;12.92;56.56;99502.66;5073690;28;46377;-76
2023/04/12 11:19:37;;;;;;;;;0.00;0.00;;;;;12.98;57.98;99504.69;5073998;28;45521;-76
2023/04/12 11:22:04;;;;;;;;;1.00;0.00;;;;;13.04;57.33;99498.81;5073186;28;45722;-75
2023/04/12 11:24:30;;;;;;;;;0.00;0.00;;;;;13.08;56.22;99486.19;5073539;28;46431;-75
2023/04/12 11:26:56;;;;;;;;;0.00;0.00;;;;;13.17;58.28;99516.06;5071791;28;45704;-76
2023/04/12 11:29:24;;;;;;;;;0.00;0.00;;;;;13.21;56.37;99484.03;5074152;28;45603;-77
2023/04/12 11:31:49;;;;;;;;;1.00;0.00;;;;;13.23;55.02;99475.97;5073600;28;45583;-77
2023/04/12 11:34:16;;;;;;;;;0.75;0.00;;;;;13.25;54.72;99489.78;5073644;28;46836;-75
2023/04/12 11:36:43;;;;;;;;;1.00;0.00;;;;;13.25;54.97;99495.88;5073679;28;46974;-77
2023/04/12 11:39:09;;;;;;;;;1.00;0.00;;;;;13.29;55.43;99510.38;5073931;28;45750;-78
2023/04/12 11:41:35;;;;;;;;;0.00;0.00;;;;;13.31;54.59;99494.44;5073382;28;45769;-77
2023/04/12 11:44:00;;;;;;;;;1.00;0.00;;;;;13.35;54.15;99487.88;5073712;28;46720;-76
2023/04/12 11:46:32;;;;;;;;;0.00;0.00;;;;;13.40;53.82;99472.47;5073950;28;47628;-75
2023/04/12 11:48:58;;;;;;;;;0.00;0.00;;;;;13.42;54.37;99483.66;5074149;28;45613;-75
2023/04/12 11:51:25;;;;;;;;;1.00;0.00;;;;;13.47;53.60;99470.88;5074172;28;45955;-77
2023/04/12 11:53:54;;;;;;;;;0.00;0.00;;;;;13.55;55.27;99464.84;5073834;28;45636;-78
2023/04/12 11:56:20;;;;;;;;;1.00;0.00;;;;;13.50;53.72;99470.56;5075567;28;45994;-78
2023/04/12 11:58:46;;;;;;;;;1.00;0.00;;;;;13.45;54.54;99451.78;5076914;28;45682;-75
2023/04/12 12:01:17;;;;;;;;;0.00;0.00;;;;;13.45;53.40;99451.78;5076626;28;45686;-76
2023/04/12 12:03:42;;;;;;;;;0.00;0.00;;;;;13.42;53.73;99470.50;5076940;28;47463;-76
2023/04/12 12:06:08;;;;;;;;;1.00;0.00;;;;;13.35;53.62;99474.72;5076746;28;47110;-75
2023/04/12 12:08:34;;;;;;;;;0.00;0.00;;;;;13.27;53.20;99462.38;5077075;28;45683;-77
2023/04/12 12:11:00;;;;;;;;;1.00;0.00;;;;;13.23;53.55;99452.28;5076495;28;45629;-77
2023/04/12 12:13:25;;;;;;;;;0.00;0.00;;;;;13.24;53.30;99467.09;5076863;28;46406;-75
2023/04/12 12:15:51;;;;;;;;;0.00;0.00;;;;;13.18;53.60;99458.00;5076537;28;46918;-77
2023/04/12 12:18:17;;;;;;;;;0.75;0.00;;;;;13.21;53.08;99462.97;5076800;28;45524;-76
2023/04/12 12:20:49;;;;;;;;;0.00;0.00;;;;;13.23;52.84;99465.44;5076577;28;45694;-78
2023/04/12 12:23:31;;;;;;;;;0.00;0.00;;;;;13.26;52.75;99459.88;5076719;28;45555;-77
2023/04/12 12:25:57;;;;;;;;;0.00;0.00;;;;;13.34;52.61;99470.44;5076305;28;46311;-75
2023/04/12 12:28:23;;;;;;;;;0.00;0.00;;;;;13.33;52.79;99448.56;5075821;28;45756;-78
2023/04/12 12:30:52;;;;;;;;;0.00;0.00;;;;;13.44;52.58;99472.00;5076589;28;45688;-76
2023/04/12 12:33:19;;;;;;;;;0.00;0.00;;;;;13.48;52.03;99448.84;5076708;28;45683;-78
2023/04/12 12:35:45;;;;;;;;;1.00;0.00;;;;;13.51;52.15;99443.25;5076740;28;45849;-77
2023/04/12 12:38:10;;;;;;;;;0.00;0.00;;;;;13.67;51.96;99453.03;5076594;28;45845;-76
2023/04/12 12:40:39;;;;;;;;;0.00;0.00;;;;;13.80;51.70;99464.81;5076463;28;45657;-78
2023/04/12 12:43:07;;;;;;;;;0.00;0.00;;;;;13.86;50.04;99442.28;5076201;28;47578;-78
2023/04/12 12:45:33;;;;;;;;;0.00;0.00;;;;;13.82;49.42;99444.41;5076711;28;45740;-76